sensor_id;sensor_type;location;lat;lon;timestamp;temperature;humidity
21171;DHT22;10743;52.160;20.910;2024-02-14T00:00:54;23.00;34.00
21171;DHT22;10743;52.160;20.910;2024-02-14T00:03:22;23.00;33.80
21171;DHT22;10743;52.160;20.910;2024-02-14T00:05:50;23.10;33.70
21171;DHT22;10743;52.160;20.910;2024-02-14T00:08:19;23.10;33.80
21171;DHT22;10743;52.160;20.910;2024-02-14T00:10:47;23.10;33.90
21171;DHT22;10743;52.160;20.910;2024-02-14T00:13:15;23.00;33.80
21171;DHT22;10743;52.160;20.910;2024-02-14T00:15:45;23.00;34.00
21171;DHT22;10743;52.160;20.910;2024-02-14T00:18:14;23.00;34.00
21171;DHT22;10743;52.160;20.910;2024-02-14T00:20:42;22.90;34.00
21171;DHT22;10743;52.160;20.910;2024-02-14T00:23:10;22.90;34.10
21171;DHT22;10743;52.160;20.910;2024-02-14T00:25:38;22.90;34.20
21171;DHT22;10743;52.160;20.910;2024-02-14T00:28:05;22.90;34.20
21171;DHT22;10743;52.160;20.910;2024-02-14T00:30:32;22.90;34.20
21171;DHT22;10743;52.160;20.910;2024-02-14T00:33:01;22.90;34.10
21171;DHT22;10743;52.160;20.910;2024-02-14T00:35:28;22.90;34.10
21171;DHT22;10743;52.160;20.910;2024-02-14T00:37:55;22.90;34.20
21171;DHT22;10743;52.160;20.910;2024-02-14T00:40:22;22.90;34.20
21171;DHT22;10743;52.160;20.910;2024-02-14T00:42:50;22.90;34.20
21171;DHT22;10743;52.160;20.910;2024-02-14T00:45:17;22.90;34.10
21171;DHT22;10743;52.160;20.910;2024-02-14T00:47:44;22.90;34.20
21171;DHT22;10743;52.160;20.910;2024-02-14T00:50:11;22.90;34.30
21171;DHT22;10743;52.160;20.910;2024-02-14T00:52:40;22.90;34.30
21171;DHT22;10743;52.160;20.910;2024-02-14T00:55:08;22.90;34.40
21171;DHT22;10743;52.160;20.910;2024-02-14T00:57:35;22.90;34.50
21171;DHT22;10743;52.160;20.910;2024-02-14T01:00:03;22.90;34.40
21171;DHT22;10743;52.160;20.910;2024-02-14T01:02:32;22.90;34.30
21171;DHT22;10743;52.160;20.910;2024-02-14T01:05:00;22.90;34.30
21171;DHT22;10743;52.160;20.910;2024-02-14T01:07:27;22.90;34.30
21171;DHT22;10743;52.160;20.910;2024-02-14T01:09:53;22.90;34.30
21171;DHT22;10743;52.160;20.910;2024-02-14T01:12:20;22.90;34.30
21171;DHT22;10743;52.160;20.910;2024-02-14T01:14:48;22.90;34.20
21171;DHT22;10743;52.160;20.910;2024-02-14T01:17:15;22.80;34.20
21171;DHT22;10743;52.160;20.910;2024-02-14T01:19:42;22.80;34.30
21171;DHT22;10743;52.160;20.910;2024-02-14T01:22:10;22.80;34.20
21171;DHT22;10743;52.160;20.910;2024-02-14T01:24:37;22.80;33.90
21171;DHT22;10743;52.160;20.910;2024-02-14T01:27:04;22.80;33.70
21171;DHT22;10743;52.160;20.910;2024-02-14T01:29:32;22.70;33.60
21171;DHT22;10743;52.160;20.910;2024-02-14T01:31:59;22.70;33.60
21171;DHT22;10743;52.160;20.910;2024-02-14T01:34:26;22.70;33.50
21171;DHT22;10743;52.160;20.910;2024-02-14T01:36:55;22.60;33.40
21171;DHT22;10743;52.160;20.910;2024-02-14T01:39:22;22.60;33.40
21171;DHT22;10743;52.160;20.910;2024-02-14T01:41:49;22.50;33.30
21171;DHT22;10743;52.160;20.910;2024-02-14T01:44:17;22.50;33.40
21171;DHT22;10743;52.160;20.910;2024-02-14T01:46:44;22.40;33.30
21171;DHT22;10743;52.160;20.910;2024-02-14T01:49:12;22.30;33.30
21171;DHT22;10743;52.160;20.910;2024-02-14T01:51:41;22.20;33.20
21171;DHT22;10743;52.160;20.910;2024-02-14T01:54:15;22.20;33.20
21171;DHT22;10743;52.160;20.910;2024-02-14T01:56:44;22.10;33.40
21171;DHT22;10743;52.160;20.910;2024-02-14T01:59:13;22.00;33.50
21171;DHT22;10743;52.160;20.910;2024-02-14T02:01:42;22.00;33.50
21171;DHT22;10743;52.160;20.910;2024-02-14T02:04:09;21.90;33.50
21171;DHT22;10743;52.160;20.910;2024-02-14T02:06:37;21.80;33.50
21171;DHT22;10743;52.160;20.910;2024-02-14T02:09:08;21.80;33.60
21171;DHT22;10743;52.160;20.910;2024-02-14T02:11:52;21.70;33.60
21171;DHT22;10743;52.160;20.910;2024-02-14T02:14:21;21.70;33.60
21171;DHT22;10743;52.160;20.910;2024-02-14T02:16:48;21.60;33.60
21171;DHT22;10743;52.160;20.910;2024-02-14T02:19:19;21.50;33.60
21171;DHT22;10743;52.160;20.910;2024-02-14T02:21:46;21.50;33.60
21171;DHT22;10743;52.160;20.910;2024-02-14T02:24:13;21.40;33.60
21171;DHT22;10743;52.160;20.910;2024-02-14T02:26:40;21.40;33.70
21171;DHT22;10743;52.160;20.910;2024-02-14T02:29:07;21.30;33.70
21171;DHT22;10743;52.160;20.910;2024-02-14T02:31:35;21.30;33.80
21171;DHT22;10743;52.160;20.910;2024-02-14T02:34:02;21.20;33.90
21171;DHT22;10743;52.160;20.910;2024-02-14T02:36:29;21.20;33.80
21171;DHT22;10743;52.160;20.910;2024-02-14T02:38:56;21.10;33.90
21171;DHT22;10743;52.160;20.910;2024-02-14T02:41:25;21.10;33.90
21171;DHT22;10743;52.160;20.910;2024-02-14T02:43:52;21.00;33.80
21171;DHT22;10743;52.160;20.910;2024-02-14T02:46:21;21.00;33.80
21171;DHT22;10743;52.160;20.910;2024-02-14T02:48:49;21.00;34.50
21171;DHT22;10743;52.160;20.910;2024-02-14T02:51:17;21.00;34.60
21171;DHT22;10743;52.160;20.910;2024-02-14T02:53:44;20.90;33.90
21171;DHT22;10743;52.160;20.910;2024-02-14T02:56:11;20.80;33.90
21171;DHT22;10743;52.160;20.910;2024-02-14T02:58:39;20.80;34.00
21171;DHT22;10743;52.160;20.910;2024-02-14T03:01:09;20.80;34.60
21171;DHT22;10743;52.160;20.910;2024-02-14T03:03:37;20.80;33.80
21171;DHT22;10743;52.160;20.910;2024-02-14T03:06:05;20.70;33.70
21171;DHT22;10743;52.160;20.910;2024-02-14T03:08:33;20.70;33.60
21171;DHT22;10743;52.160;20.910;2024-02-14T03:11:05;20.60;33.70
21171;DHT22;10743;52.160;20.910;2024-02-14T03:13:32;20.60;33.80
21171;DHT22;10743;52.160;20.910;2024-02-14T03:16:00;20.50;33.90
21171;DHT22;10743;52.160;20.910;2024-02-14T03:18:27;20.50;34.00
21171;DHT22;10743;52.160;20.910;2024-02-14T03:20:54;20.40;34.10
21171;DHT22;10743;52.160;20.910;2024-02-14T03:23:21;20.40;34.20
21171;DHT22;10743;52.160;20.910;2024-02-14T03:25:49;20.40;34.10
21171;DHT22;10743;52.160;20.910;2024-02-14T03:28:16;20.30;34.00
21171;DHT22;10743;52.160;20.910;2024-02-14T03:30:43;20.30;34.00
21171;DHT22;10743;52.160;20.910;2024-02-14T03:33:10;20.30;34.10
21171;DHT22;10743;52.160;20.910;2024-02-14T03:35:37;20.30;34.20
21171;DHT22;10743;52.160;20.910;2024-02-14T03:38:05;20.20;34.20
21171;DHT22;10743;52.160;20.910;2024-02-14T03:40:35;20.20;34.30
21171;DHT22;10743;52.160;20.910;2024-02-14T03:43:04;20.20;34.40
21171;DHT22;10743;52.160;20.910;2024-02-14T03:45:31;20.10;34.50
21171;DHT22;10743;52.160;20.910;2024-02-14T03:47:58;20.10;34.50
21171;DHT22;10743;52.160;20.910;2024-02-14T03:50:26;20.10;34.50
21171;DHT22;10743;52.160;20.910;2024-02-14T03:52:53;20.10;34.50
21171;DHT22;10743;52.160;20.910;2024-02-14T03:55:22;20.10;34.40
21171;DHT22;10743;52.160;20.910;2024-02-14T03:57:50;20.10;34.40
21171;DHT22;10743;52.160;20.910;2024-02-14T04:00:17;20.10;34.50
21171;DHT22;10743;52.160;20.910;2024-02-14T04:02:45;20.10;34.50
21171;DHT22;10743;52.160;20.910;2024-02-14T04:05:14;20.00;34.50
21171;DHT22;10743;52.160;20.910;2024-02-14T04:07:41;20.00;34.30
21171;DHT22;10743;52.160;20.910;2024-02-14T04:10:11;20.00;34.20
21171;DHT22;10743;52.160;20.910;2024-02-14T04:12:38;20.00;34.30
21171;DHT22;10743;52.160;20.910;2024-02-14T04:15:05;20.00;34.50
21171;DHT22;10743;52.160;20.910;2024-02-14T04:17:33;20.00;34.40
21171;DHT22;10743;52.160;20.910;2024-02-14T04:20:00;20.00;34.20
21171;DHT22;10743;52.160;20.910;2024-02-14T04:22:27;20.00;34.10
21171;DHT22;10743;52.160;20.910;2024-02-14T04:24:54;19.90;34.00
21171;DHT22;10743;52.160;20.910;2024-02-14T04:27:22;19.90;33.90
21171;DHT22;10743;52.160;20.910;2024-02-14T04:29:49;19.90;34.50
21171;DHT22;10743;52.160;20.910;2024-02-14T04:32:16;19.70;33.80
21171;DHT22;10743;52.160;20.910;2024-02-14T04:34:43;19.80;33.90
21171;DHT22;10743;52.160;20.910;2024-02-14T04:37:11;19.80;33.90
21171;DHT22;10743;52.160;20.910;2024-02-14T04:39:41;19.70;33.90
21171;DHT22;10743;52.160;20.910;2024-02-14T04:42:09;19.70;33.80
21171;DHT22;10743;52.160;20.910;2024-02-14T04:44:36;19.70;33.90
21171;DHT22;10743;52.160;20.910;2024-02-14T04:47:03;19.70;33.90
21171;DHT22;10743;52.160;20.910;2024-02-14T04:49:30;19.60;33.90
21171;DHT22;10743;52.160;20.910;2024-02-14T04:51:58;19.60;34.00
21171;DHT22;10743;52.160;20.910;2024-02-14T04:54:25;19.60;34.10
21171;DHT22;10743;52.160;20.910;2024-02-14T04:56:53;19.50;34.00
21171;DHT22;10743;52.160;20.910;2024-02-14T04:59:26;19.50;34.00
21171;DHT22;10743;52.160;20.910;2024-02-14T05:01:53;19.50;34.00
21171;DHT22;10743;52.160;20.910;2024-02-14T05:04:21;19.50;34.30
21171;DHT22;10743;52.160;20.910;2024-02-14T05:06:49;19.40;34.60
21171;DHT22;10743;52.160;20.910;2024-02-14T05:09:19;19.40;34.70
21171;DHT22;10743;52.160;20.910;2024-02-14T05:11:46;19.40;34.70
21171;DHT22;10743;52.160;20.910;2024-02-14T05:14:13;19.40;35.30
21171;DHT22;10743;52.160;20.910;2024-02-14T05:16:40;19.40;34.50
21171;DHT22;10743;52.160;20.910;2024-02-14T05:19:07;19.40;34.50
21171;DHT22;10743;52.160;20.910;2024-02-14T05:21:35;19.40;34.50
21171;DHT22;10743;52.160;20.910;2024-02-14T05:24:02;19.40;34.60
21171;DHT22;10743;52.160;20.910;2024-02-14T05:26:30;19.40;34.50
21171;DHT22;10743;52.160;20.910;2024-02-14T05:28:57;19.40;34.50
21171;DHT22;10743;52.160;20.910;2024-02-14T05:31:43;19.40;34.60
21171;DHT22;10743;52.160;20.910;2024-02-14T05:34:11;19.40;35.30
21171;DHT22;10743;52.160;20.910;2024-02-14T05:36:38;19.40;34.70
21171;DHT22;10743;52.160;20.910;2024-02-14T05:39:05;19.40;34.70
21171;DHT22;10743;52.160;20.910;2024-02-14T05:41:35;19.40;34.60
21171;DHT22;10743;52.160;20.910;2024-02-14T05:44:02;19.40;34.60
21171;DHT22;10743;52.160;20.910;2024-02-14T05:46:30;19.30;34.50
21171;DHT22;10743;52.160;20.910;2024-02-14T05:48:57;19.40;34.50
21171;DHT22;10743;52.160;20.910;2024-02-14T05:51:25;19.30;34.30
21171;DHT22;10743;52.160;20.910;2024-02-14T05:53:52;19.30;34.40
21171;DHT22;10743;52.160;20.910;2024-02-14T05:56:19;19.30;34.40
21171;DHT22;10743;52.160;20.910;2024-02-14T05:58:47;19.30;34.40
21171;DHT22;10743;52.160;20.910;2024-02-14T06:01:14;19.30;34.40
21171;DHT22;10743;52.160;20.910;2024-02-14T06:03:42;19.30;34.40
21171;DHT22;10743;52.160;20.910;2024-02-14T06:06:10;19.30;34.50
21171;DHT22;10743;52.160;20.910;2024-02-14T06:08:37;19.20;34.50
21171;DHT22;10743;52.160;20.910;2024-02-14T06:11:04;19.20;34.60
21171;DHT22;10743;52.160;20.910;2024-02-14T06:13:31;19.20;34.60
21171;DHT22;10743;52.160;20.910;2024-02-14T06:15:58;19.20;34.80
21171;DHT22;10743;52.160;20.910;2024-02-14T06:18:25;19.30;34.80
21171;DHT22;10743;52.160;20.910;2024-02-14T06:20:52;19.20;34.70
21171;DHT22;10743;52.160;20.910;2024-02-14T06:23:20;19.30;34.70
21171;DHT22;10743;52.160;20.910;2024-02-14T06:25:47;19.20;34.70
21171;DHT22;10743;52.160;20.910;2024-02-14T06:28:14;19.20;34.70
21171;DHT22;10743;52.160;20.910;2024-02-14T06:30:41;19.30;34.80
21171;DHT22;10743;52.160;20.910;2024-02-14T06:33:08;19.20;34.80
21171;DHT22;10743;52.160;20.910;2024-02-14T06:35:35;19.20;34.80
21171;DHT22;10743;52.160;20.910;2024-02-14T06:38:03;19.20;35.00
21171;DHT22;10743;52.160;20.910;2024-02-14T06:40:32;19.30;35.20
21171;DHT22;10743;52.160;20.910;2024-02-14T06:42:59;19.40;35.40
21171;DHT22;10743;52.160;20.910;2024-02-14T06:45:28;19.50;35.50
21171;DHT22;10743;52.160;20.910;2024-02-14T06:47:55;19.50;35.60
21171;DHT22;10743;52.160;20.910;2024-02-14T06:50:22;19.50;35.80
21171;DHT22;10743;52.160;20.910;2024-02-14T06:52:52;19.50;35.90
21171;DHT22;10743;52.160;20.910;2024-02-14T06:55:20;19.60;36.00
21171;DHT22;10743;52.160;20.910;2024-02-14T06:57:47;19.60;36.70
21171;DHT22;10743;52.160;20.910;2024-02-14T07:00:14;19.60;36.10
21171;DHT22;10743;52.160;20.910;2024-02-14T07:02:41;19.70;36.20
21171;DHT22;10743;52.160;20.910;2024-02-14T07:05:10;19.70;36.30
21171;DHT22;10743;52.160;20.910;2024-02-14T07:07:40;19.70;36.20
21171;DHT22;10743;52.160;20.910;2024-02-14T07:10:08;19.80;36.40
21171;DHT22;10743;52.160;20.910;2024-02-14T07:12:35;19.80;36.40
21171;DHT22;10743;52.160;20.910;2024-02-14T07:15:06;19.90;36.30
21171;DHT22;10743;52.160;20.910;2024-02-14T07:17:33;20.00;36.30
21171;DHT22;10743;52.160;20.910;2024-02-14T07:20:01;20.20;36.30
21171;DHT22;10743;52.160;20.910;2024-02-14T07:22:29;20.30;37.00
21171;DHT22;10743;52.160;20.910;2024-02-14T07:24:57;20.30;36.20
21171;DHT22;10743;52.160;20.910;2024-02-14T07:27:24;20.40;36.30
21171;DHT22;10743;52.160;20.910;2024-02-14T07:29:51;20.40;36.30
21171;DHT22;10743;52.160;20.910;2024-02-14T07:32:19;20.50;36.30
21171;DHT22;10743;52.160;20.910;2024-02-14T07:34:46;20.60;36.30
21171;DHT22;10743;52.160;20.910;2024-02-14T07:37:13;20.70;36.20
21171;DHT22;10743;52.160;20.910;2024-02-14T07:39:43;20.70;36.30
21171;DHT22;10743;52.160;20.910;2024-02-14T07:42:11;20.80;36.30
21171;DHT22;10743;52.160;20.910;2024-02-14T07:44:38;20.90;36.10
21171;DHT22;10743;52.160;20.910;2024-02-14T07:47:05;20.90;36.10
21171;DHT22;10743;52.160;20.910;2024-02-14T07:49:33;21.10;36.00
21171;DHT22;10743;52.160;20.910;2024-02-14T07:52:00;21.20;35.90
21171;DHT22;10743;52.160;20.910;2024-02-14T07:54:27;21.30;36.40
21171;DHT22;10743;52.160;20.910;2024-02-14T07:56:54;21.20;35.80
21171;DHT22;10743;52.160;20.910;2024-02-14T07:59:22;21.30;35.90
21171;DHT22;10743;52.160;20.910;2024-02-14T08:01:49;21.40;35.70
21171;DHT22;10743;52.160;20.910;2024-02-14T08:04:16;21.50;35.40
21171;DHT22;10743;52.160;20.910;2024-02-14T08:06:46;21.60;35.20
21171;DHT22;10743;52.160;20.910;2024-02-14T08:09:13;21.70;35.00
21171;DHT22;10743;52.160;20.910;2024-02-14T08:11:40;21.80;35.00
21171;DHT22;10743;52.160;20.910;2024-02-14T08:14:08;21.90;35.00
21171;DHT22;10743;52.160;20.910;2024-02-14T08:16:35;21.90;35.60
21171;DHT22;10743;52.160;20.910;2024-02-14T08:19:02;22.00;34.70
21171;DHT22;10743;52.160;20.910;2024-02-14T08:21:30;22.00;34.80
21171;DHT22;10743;52.160;20.910;2024-02-14T08:23:58;22.00;34.90
21171;DHT22;10743;52.160;20.910;2024-02-14T08:26:28;22.00;35.70
21171;DHT22;10743;52.160;20.910;2024-02-14T08:28:55;22.10;34.70
21171;DHT22;10743;52.160;20.910;2024-02-14T08:31:23;22.30;34.30
21171;DHT22;10743;52.160;20.910;2024-02-14T08:33:50;22.30;34.40
21171;DHT22;10743;52.160;20.910;2024-02-14T08:36:17;22.40;34.50
21171;DHT22;10743;52.160;20.910;2024-02-14T08:38:46;22.40;34.40
21171;DHT22;10743;52.160;20.910;2024-02-14T08:41:14;22.50;34.30
21171;DHT22;10743;52.160;20.910;2024-02-14T08:43:41;22.60;34.20
21171;DHT22;10743;52.160;20.910;2024-02-14T08:46:13;22.60;34.00
21171;DHT22;10743;52.160;20.910;2024-02-14T08:48:42;22.70;33.60
21171;DHT22;10743;52.160;20.910;2024-02-14T08:51:16;22.80;33.40
21171;DHT22;10743;52.160;20.910;2024-02-14T08:53:44;22.90;33.40
21171;DHT22;10743;52.160;20.910;2024-02-14T08:56:14;23.00;33.40
21171;DHT22;10743;52.160;20.910;2024-02-14T08:58:42;23.10;33.30
21171;DHT22;10743;52.160;20.910;2024-02-14T09:01:11;23.10;33.40
21171;DHT22;10743;52.160;20.910;2024-02-14T09:03:45;23.10;33.40
21171;DHT22;10743;52.160;20.910;2024-02-14T09:06:17;23.10;33.40
21171;DHT22;10743;52.160;20.910;2024-02-14T09:08:45;23.20;33.50
21171;DHT22;10743;52.160;20.910;2024-02-14T09:11:13;23.30;32.90
21171;DHT22;10743;52.160;20.910;2024-02-14T09:13:40;23.50;32.90
21171;DHT22;10743;52.160;20.910;2024-02-14T09:16:08;23.50;32.70
21171;DHT22;10743;52.160;20.910;2024-02-14T09:18:36;23.50;32.70
21171;DHT22;10743;52.160;20.910;2024-02-14T09:21:04;23.60;32.50
21171;DHT22;10743;52.160;20.910;2024-02-14T09:23:32;23.70;32.50
21171;DHT22;10743;52.160;20.910;2024-02-14T09:26:00;23.80;32.30
21171;DHT22;10743;52.160;20.910;2024-02-14T09:28:28;24.00;31.40
21171;DHT22;10743;52.160;20.910;2024-02-14T09:30:56;24.10;31.30
21171;DHT22;10743;52.160;20.910;2024-02-14T09:33:23;24.20;31.40
21171;DHT22;10743;52.160;20.910;2024-02-14T09:35:50;24.20;31.40
21171;DHT22;10743;52.160;20.910;2024-02-14T09:38:21;24.30;30.80
21171;DHT22;10743;52.160;20.910;2024-02-14T09:40:51;24.40;31.00
21171;DHT22;10743;52.160;20.910;2024-02-14T09:43:38;24.50;30.70
21171;DHT22;10743;52.160;20.910;2024-02-14T09:46:07;24.40;30.80
21171;DHT22;10743;52.160;20.910;2024-02-14T09:48:36;24.50;30.80
21171;DHT22;10743;52.160;20.910;2024-02-14T09:51:05;24.50;30.60
21171;DHT22;10743;52.160;20.910;2024-02-14T09:53:34;24.60;30.30
21171;DHT22;10743;52.160;20.910;2024-02-14T09:56:05;24.70;30.20
21171;DHT22;10743;52.160;20.910;2024-02-14T09:58:34;24.70;30.20
21171;DHT22;10743;52.160;20.910;2024-02-14T10:01:01;24.70;29.90
21171;DHT22;10743;52.160;20.910;2024-02-14T10:03:28;24.90;29.30
21171;DHT22;10743;52.160;20.910;2024-02-14T10:05:55;25.00;28.80
21171;DHT22;10743;52.160;20.910;2024-02-14T10:08:22;25.10;28.70
21171;DHT22;10743;52.160;20.910;2024-02-14T10:10:50;25.10;29.10
21171;DHT22;10743;52.160;20.910;2024-02-14T10:13:19;25.10;29.00
21171;DHT22;10743;52.160;20.910;2024-02-14T10:15:46;25.00;28.90
21171;DHT22;10743;52.160;20.910;2024-02-14T10:18:14;25.10;28.60
21171;DHT22;10743;52.160;20.910;2024-02-14T10:20:56;25.10;28.50
21171;DHT22;10743;52.160;20.910;2024-02-14T10:23:23;25.30;27.70
21171;DHT22;10743;52.160;20.910;2024-02-14T10:25:53;25.40;27.30
21171;DHT22;10743;52.160;20.910;2024-02-14T10:28:21;25.40;27.80
21171;DHT22;10743;52.160;20.910;2024-02-14T10:30:58;25.50;27.30
21171;DHT22;10743;52.160;20.910;2024-02-14T10:33:29;25.60;27.10
21171;DHT22;10743;52.160;20.910;2024-02-14T10:35:57;25.60;27.50
21171;DHT22;10743;52.160;20.910;2024-02-14T10:38:31;25.60;27.60
21171;DHT22;10743;52.160;20.910;2024-02-14T10:41:02;25.60;27.10
21171;DHT22;10743;52.160;20.910;2024-02-14T10:43:30;25.60;27.50
21171;DHT22;10743;52.160;20.910;2024-02-14T10:46:05;25.60;27.40
21171;DHT22;10743;52.160;20.910;2024-02-14T10:48:36;25.70;27.10
21171;DHT22;10743;52.160;20.910;2024-02-14T10:51:05;25.80;26.90
21171;DHT22;10743;52.160;20.910;2024-02-14T10:53:39;25.80;27.30
21171;DHT22;10743;52.160;20.910;2024-02-14T10:56:17;25.70;27.40
21171;DHT22;10743;52.160;20.910;2024-02-14T10:58:47;25.70;27.40
21171;DHT22;10743;52.160;20.910;2024-02-14T11:01:16;25.80;27.30
21171;DHT22;10743;52.160;20.910;2024-02-14T11:03:44;26.00;26.70
21171;DHT22;10743;52.160;20.910;2024-02-14T11:06:16;26.10;27.30
21171;DHT22;10743;52.160;20.910;2024-02-14T11:09:01;26.20;26.40
21171;DHT22;10743;52.160;20.910;2024-02-14T11:11:37;26.00;26.80
21171;DHT22;10743;52.160;20.910;2024-02-14T11:14:06;26.10;26.70
21171;DHT22;10743;52.160;20.910;2024-02-14T11:16:33;26.30;26.50
21171;DHT22;10743;52.160;20.910;2024-02-14T11:19:11;26.30;26.50
21171;DHT22;10743;52.160;20.910;2024-02-14T11:21:41;26.20;26.60
21171;DHT22;10743;52.160;20.910;2024-02-14T11:24:14;26.20;26.50
21171;DHT22;10743;52.160;20.910;2024-02-14T11:26:50;26.30;26.20
21171;DHT22;10743;52.160;20.910;2024-02-14T11:29:19;26.40;25.80
21171;DHT22;10743;52.160;20.910;2024-02-14T11:31:58;26.40;25.90
21171;DHT22;10743;52.160;20.910;2024-02-14T11:34:28;26.50;25.50
21171;DHT22;10743;52.160;20.910;2024-02-14T11:36:55;26.50;25.50
21171;DHT22;10743;52.160;20.910;2024-02-14T11:39:22;26.50;25.60
21171;DHT22;10743;52.160;20.910;2024-02-14T11:41:49;26.50;25.60
21171;DHT22;10743;52.160;20.910;2024-02-14T11:44:19;26.40;25.60
21171;DHT22;10743;52.160;20.910;2024-02-14T11:46:49;26.40;25.80
21171;DHT22;10743;52.160;20.910;2024-02-14T11:49:16;26.50;25.30
21171;DHT22;10743;52.160;20.910;2024-02-14T11:51:44;26.60;25.50
21171;DHT22;10743;52.160;20.910;2024-02-14T11:54:11;26.50;25.80
21171;DHT22;10743;52.160;20.910;2024-02-14T11:56:39;26.40;25.90
21171;DHT22;10743;52.160;20.910;2024-02-14T11:59:07;26.30;25.80
21171;DHT22;10743;52.160;20.910;2024-02-14T12:01:36;26.30;25.60
21171;DHT22;10743;52.160;20.910;2024-02-14T12:04:06;26.40;25.60
21171;DHT22;10743;52.160;20.910;2024-02-14T12:06:36;26.40;25.40
21171;DHT22;10743;52.160;20.910;2024-02-14T12:09:08;26.40;25.40
21171;DHT22;10743;52.160;20.910;2024-02-14T12:11:36;26.50;25.50
21171;DHT22;10743;52.160;20.910;2024-02-14T12:14:08;26.50;24.80
21171;DHT22;10743;52.160;20.910;2024-02-14T12:16:37;26.60;24.70
21171;DHT22;10743;52.160;20.910;2024-02-14T12:19:08;26.50;25.00
21171;DHT22;10743;52.160;20.910;2024-02-14T12:21:39;26.40;25.30
21171;DHT22;10743;52.160;20.910;2024-02-14T12:24:10;26.40;25.20
21171;DHT22;10743;52.160;20.910;2024-02-14T12:26:38;26.30;25.50
21171;DHT22;10743;52.160;20.910;2024-02-14T12:29:06;26.30;25.80
21171;DHT22;10743;52.160;20.910;2024-02-14T12:31:35;26.20;25.70
21171;DHT22;10743;52.160;20.910;2024-02-14T12:34:04;26.30;25.80
21171;DHT22;10743;52.160;20.910;2024-02-14T12:36:34;26.20;25.90
21171;DHT22;10743;52.160;20.910;2024-02-14T12:39:02;26.10;25.70
21171;DHT22;10743;52.160;20.910;2024-02-14T12:41:31;26.10;25.70
21171;DHT22;10743;52.160;20.910;2024-02-14T12:43:59;26.10;25.70
21171;DHT22;10743;52.160;20.910;2024-02-14T12:46:27;26.10;25.70
21171;DHT22;10743;52.160;20.910;2024-02-14T12:48:54;26.20;25.70
21171;DHT22;10743;52.160;20.910;2024-02-14T12:51:21;26.20;25.60
21171;DHT22;10743;52.160;20.910;2024-02-14T12:53:49;26.20;25.60
21171;DHT22;10743;52.160;20.910;2024-02-14T12:56:16;26.30;25.50
21171;DHT22;10743;52.160;20.910;2024-02-14T12:58:43;26.20;25.40
21171;DHT22;10743;52.160;20.910;2024-02-14T13:01:11;26.20;25.50
21171;DHT22;10743;52.160;20.910;2024-02-14T13:03:39;26.20;25.50
21171;DHT22;10743;52.160;20.910;2024-02-14T13:06:06;26.20;25.40
21171;DHT22;10743;52.160;20.910;2024-02-14T13:08:33;26.30;25.10
21171;DHT22;10743;52.160;20.910;2024-02-14T13:11:00;26.30;25.20
21171;DHT22;10743;52.160;20.910;2024-02-14T13:13:27;26.30;25.30
21171;DHT22;10743;52.160;20.910;2024-02-14T13:15:56;26.30;25.50
21171;DHT22;10743;52.160;20.910;2024-02-14T13:18:23;26.30;25.10
21171;DHT22;10743;52.160;20.910;2024-02-14T13:20:51;26.30;25.30
21171;DHT22;10743;52.160;20.910;2024-02-14T13:23:26;26.30;25.20
21171;DHT22;10743;52.160;20.910;2024-02-14T13:25:53;26.30;25.40
21171;DHT22;10743;52.160;20.910;2024-02-14T13:28:20;26.20;25.50
21171;DHT22;10743;52.160;20.910;2024-02-14T13:30:48;26.30;25.30
21171;DHT22;10743;52.160;20.910;2024-02-14T13:33:15;26.30;25.10
21171;DHT22;10743;52.160;20.910;2024-02-14T13:35:42;26.30;25.10
21171;DHT22;10743;52.160;20.910;2024-02-14T13:38:09;26.20;25.30
21171;DHT22;10743;52.160;20.910;2024-02-14T13:40:36;26.20;25.40
21171;DHT22;10743;52.160;20.910;2024-02-14T13:43:03;26.20;25.40
21171;DHT22;10743;52.160;20.910;2024-02-14T13:45:41;26.30;25.10
21171;DHT22;10743;52.160;20.910;2024-02-14T13:48:09;26.30;25.10
21171;DHT22;10743;52.160;20.910;2024-02-14T13:50:37;26.20;25.30
21171;DHT22;10743;52.160;20.910;2024-02-14T13:53:06;26.10;25.60
21171;DHT22;10743;52.160;20.910;2024-02-14T13:55:34;26.10;25.50
21171;DHT22;10743;52.160;20.910;2024-02-14T13:58:01;26.10;25.40
21171;DHT22;10743;52.160;20.910;2024-02-14T14:00:28;26.10;25.20
21171;DHT22;10743;52.160;20.910;2024-02-14T14:02:55;26.20;25.10
21171;DHT22;10743;52.160;20.910;2024-02-14T14:05:23;26.20;25.30
21171;DHT22;10743;52.160;20.910;2024-02-14T14:07:50;26.20;25.40
21171;DHT22;10743;52.160;20.910;2024-02-14T14:10:26;26.10;25.30
21171;DHT22;10743;52.160;20.910;2024-02-14T14:12:55;26.20;25.50
21171;DHT22;10743;52.160;20.910;2024-02-14T14:15:23;26.10;25.50
21171;DHT22;10743;52.160;20.910;2024-02-14T14:17:51;26.10;25.70
21171;DHT22;10743;52.160;20.910;2024-02-14T14:20:19;26.00;25.60
21171;DHT22;10743;52.160;20.910;2024-02-14T14:22:47;26.00;25.70
21171;DHT22;10743;52.160;20.910;2024-02-14T14:25:14;25.90;25.80
21171;DHT22;10743;52.160;20.910;2024-02-14T14:27:42;26.00;25.60
21171;DHT22;10743;52.160;20.910;2024-02-14T14:30:10;26.00;25.70
21171;DHT22;10743;52.160;20.910;2024-02-14T14:32:38;26.00;25.20
21171;DHT22;10743;52.160;20.910;2024-02-14T14:35:07;25.90;25.40
21171;DHT22;10743;52.160;20.910;2024-02-14T14:37:37;25.90;25.60
21171;DHT22;10743;52.160;20.910;2024-02-14T14:40:05;25.90;25.40
21171;DHT22;10743;52.160;20.910;2024-02-14T14:42:35;25.80;25.70
21171;DHT22;10743;52.160;20.910;2024-02-14T14:45:02;25.80;25.70
21171;DHT22;10743;52.160;20.910;2024-02-14T14:47:30;25.80;25.80
21171;DHT22;10743;52.160;20.910;2024-02-14T14:49:57;25.80;25.90
21171;DHT22;10743;52.160;20.910;2024-02-14T14:52:25;25.80;25.90
21171;DHT22;10743;52.160;20.910;2024-02-14T14:54:53;25.70;25.90
21171;DHT22;10743;52.160;20.910;2024-02-14T14:57:20;25.70;25.90
21171;DHT22;10743;52.160;20.910;2024-02-14T14:59:48;25.70;26.00
21171;DHT22;10743;52.160;20.910;2024-02-14T15:02:15;25.70;25.90
21171;DHT22;10743;52.160;20.910;2024-02-14T15:04:42;25.70;25.80
21171;DHT22;10743;52.160;20.910;2024-02-14T15:07:11;25.70;26.00
21171;DHT22;10743;52.160;20.910;2024-02-14T15:09:38;25.60;26.00
21171;DHT22;10743;52.160;20.910;2024-02-14T15:12:06;25.50;26.10
21171;DHT22;10743;52.160;20.910;2024-02-14T15:14:33;25.50;26.10
21171;DHT22;10743;52.160;20.910;2024-02-14T15:17:00;25.50;26.30
21171;DHT22;10743;52.160;20.910;2024-02-14T15:19:27;25.40;26.40
21171;DHT22;10743;52.160;20.910;2024-02-14T15:21:54;25.30;26.40